ADDS METAR Data INFO
IDs: Format: Raw Decoded Include TAF

Data at: 1747 UTC 21 Oct 2017

KDCA 211652Z 18004KT 10SM BKN250 24/04 A3035 RMK AO2 SLP276 T02390039
KDCA 211552Z 00000KT 10SM BKN250 23/07 A3037 RMK AO2 SLP282 T02280067
KDCA 211452Z VRB03KT 10SM SCT250 20/11 A3037 RMK AO2 SLP284 T02000106 51014
KDCA 211352Z 00000KT 10SM SCT250 17/12 A3037 RMK AO2 SLP284 T01670117
KDCA 211252Z 36003KT 10SM SCT250 14/11 A3036 RMK AO2 SLP279 T01440111
KDCA 211152Z 36004KT 10SM BKN250 12/09 A3033 RMK AO2 SLP270 T01220094 10144 20111 51017
KDCA 211052Z 36005KT 10SM FEW250 11/09 A3032 RMK AO2 SLP264 T01110089
KDCA 210952Z 35005KT 10SM CLR 11/09 A3030 RMK AO2 SLP259 T01110094
KDCA 210852Z 36003KT 10SM CLR 12/10 A3028 RMK AO2 SLP253 T01220100 53001
KDCA 210752Z 22003KT 10SM CLR 12/11 A3028 RMK AO2 SLP251 T01220106
KDCA 210652Z 00000KT 10SM CLR 13/10 A3028 RMK AO2 SLP252 T01330100
KDCA 210552Z 00000KT 10SM CLR 14/11 A3028 RMK AO2 SLP252 T01440106 10194 20139 51010
KDCA 210452Z 20003KT 10SM CLR 15/11 A3027 RMK AO2 SLP249 T01500106 402500128
KDCA 210352Z 01003KT 10SM CLR 16/12 A3026 RMK AO2 SLP245 T01560117
KDCA 210252Z 01004KT 10SM CLR 16/12 A3025 RMK AO2 SLP242 T01560117 53010
KDCA 210152Z 00000KT 10SM CLR 17/12 A3024 RMK AO2 SLP239 T01720122
KDCA 210052Z 00000KT 10SM CLR 18/12 A3022 RMK AO2 SLP233 T01830122
KDCA 202352Z 03003KT 10SM FEW250 19/11 A3022 RMK AO2 SLP232 T01890106 10250 20189 52008
KDCA 202252Z 30005KT 10SM SCT250 22/08 A3021 RMK AO2 SLP230 T02170078
KDCA 202152Z 31007KT 10SM SCT250 23/08 A3020 RMK AO2 SLP225 T02280078
KDCA 202052Z 31009KT 10SM FEW250 24/08 A3019 RMK AO2 SLP223 T02390078 56008
KDCA 201952Z 30004KT 10SM SCT250 24/07 A3019 RMK AO2 SLP224 T02440072
KDCA 201852Z VRB06KT 10SM SCT250 24/07 A3020 RMK AO2 SLP227 T02440072
KDCA 201752Z 32011KT 10SM BKN250 24/08 A3022 RMK AO2 SLP232 T02440078 10244 20150 58014
KDCA 201652Z 31008KT 10SM BKN250 24/10 A3025 RMK AO2 SLP241 T02390100
KDCA 201552Z 32012KT 10SM BKN250 22/11 A3026 RMK AO2 SLP246 T02220106
KDCA 201452Z 35010KT 10SM BKN250 22/11 A3026 RMK AO2 SLP246 T02220111 51011
KDCA 201352Z 32008KT 10SM BKN250 21/10 A3025 RMK AO2 SLP244 T02060100
KDCA 201252Z 32010KT 10SM BKN250 19/10 A3024 RMK AO2 SLP240 T01940100
KDCA 201152Z 00000KT 10SM BKN250 16/12 A3023 RMK AO2 SLP234 T01560122 10167 20128 52017
KDCA 201052Z 00000KT 10SM BKN250 13/12 A3021 RMK AO2 SLP229 T01330122
KDCA 200952Z 00000KT 10SM CLR 13/12 A3019 RMK AO2 SLP223 T01330117
KDCA 200852Z 20004KT 10SM CLR 13/12 A3018 RMK AO2 SLP218 T01330122 53002
KDCA 200752Z 00000KT 10SM CLR 13/12 A3017 RMK AO2 SLP216 T01280117
KDCA 200652Z 26003KT 10SM CLR 13/11 A3017 RMK AO2 SLP216 T01280111
KDCA 200552Z 22004KT 10SM CLR 14/11 A3017 RMK AO2 SLP215 T01390106 10172 20133 50000